Time;durP1;ratioP1;P1;durP2;ratioP2;P2;SDS_P1;SDS_P2;PMS_P1;PMS_P2;Temp;Humidity;BMP_temperature;BMP_pressure;BME280_temperature;BME280_humidity;BME280_pressure;Samples;Min_cycle;Max_cycle;Signal;HPM_P1;HPM_P2
2021/12/28 00:03:22;;;;;;;0.20;0.10;;;16.00;99.90;;;;;;20829890;28;20329;-74
2021/12/28 00:13:30;;;;;;;0.20;0.10;;;16.00;99.90;;;;;;20838527;28;20198;-74
2021/12/28 00:23:39;;;;;;;0.20;0.10;;;15.90;99.90;;;;;;20838143;28;20222;-74
2021/12/28 00:33:45;;;;;;;0.20;0.10;;;15.30;99.90;;;;;;20837026;28;20677;-73
2021/12/28 00:43:49;;;;;;;0.20;0.10;;;15.00;99.90;;;;;;20836316;28;20309;-72
2021/12/28 00:53:55;;;;;;;0.20;0.10;;;15.10;99.90;;;;;;20835160;28;20252;-72
2021/12/28 01:03:59;;;;;;;0.20;0.10;;;15.10;99.90;;;;;;20833569;28;20230;-71
2021/12/28 01:14:04;;;;;;;0.20;0.10;;;15.10;99.90;;;;;;20832690;28;20276;-73
2021/12/28 01:24:08;;;;;;;0.20;0.03;;;15.20;99.90;;;;;;20832661;28;20245;-74
2021/12/28 01:34:14;;;;;;;0.20;0.10;;;15.50;99.90;;;;;;20814395;28;20198;-73
2021/12/28 01:44:18;;;;;;;0.20;0.00;;;15.50;99.90;;;;;;20830966;28;20308;-73
2021/12/28 01:54:24;;;;;;;0.20;0.00;;;15.60;99.90;;;;;;20830409;28;20200;-74
2021/12/28 02:04:30;;;;;;;0.20;0.10;;;15.60;99.90;;;;;;20829345;28;20273;-78
2021/12/28 02:14:36;;;;;;;0.20;0.10;;;15.60;99.90;;;;;;20829144;28;20232;-75
2021/12/28 02:24:42;;;;;;;0.20;0.10;;;15.50;99.90;;;;;;20810876;28;20630;-73
2021/12/28 02:34:46;;;;;;;0.20;0.10;;;15.70;99.90;;;;;;20810315;28;20501;-80
2021/12/28 02:45:07;;;;;;;0.20;0.10;;;15.90;99.90;;;;;;20827452;28;20190;-73
2021/12/28 02:55:14;;;;;;;0.20;0.10;;;16.10;99.90;;;;;;20808812;28;20237;-74
2021/12/28 03:05:19;;;;;;;0.20;0.10;;;16.00;99.90;;;;;;20826840;28;20316;-73
2021/12/28 03:15:23;;;;;;;0.20;0.10;;;15.90;99.90;;;;;;20825767;28;20213;-73
2021/12/28 03:25:28;;;;;;;0.20;0.10;;;15.90;99.90;;;;;;20825709;28;20210;-74
2021/12/28 03:35:32;;;;;;;0.20;0.00;;;15.70;99.90;;;;;;20827052;28;20296;-74
2021/12/28 03:45:38;;;;;;;0.20;0.10;;;15.60;99.90;;;;;;20840608;28;20240;-74
2021/12/28 03:55:43;;;;;;;0.20;0.00;;;15.50;99.90;;;;;;20840185;28;20593;-74
2021/12/28 04:05:48;;;;;;;0.20;0.10;;;15.40;99.90;;;;;;20838929;28;20230;-74
2021/12/28 04:15:52;;;;;;;0.20;0.10;;;15.40;99.90;;;;;;20836770;28;20300;-72
2021/12/28 04:25:57;;;;;;;0.20;0.10;;;15.40;99.90;;;;;;20837188;28;20260;-74
2021/12/28 04:36:01;;;;;;;0.20;0.10;;;15.40;99.90;;;;;;20836876;28;21186;-73
2021/12/28 04:46:07;;;;;;;0.20;0.10;;;15.10;99.90;;;;;;20836278;28;20214;-71
2021/12/28 04:56:10;;;;;;;0.20;0.10;;;15.10;99.90;;;;;;20835878;28;20237;-71
2021/12/28 05:06:17;;;;;;;0.20;0.10;;;15.30;99.90;;;;;;20833817;28;20324;-73
2021/12/28 05:16:21;;;;;;;0.20;0.00;;;15.20;99.90;;;;;;20834387;28;20696;-72
2021/12/28 05:26:26;;;;;;;2.40;0.67;;;15.10;99.90;;;;;;20833866;28;20248;-72
2021/12/28 05:36:30;;;;;;;0.20;0.10;;;15.10;99.90;;;;;;20832202;28;20236;-74
2021/12/28 05:46:35;;;;;;;0.20;0.10;;;15.00;99.90;;;;;;20831903;28;20285;-74
2021/12/28 05:56:41;;;;;;;0.20;0.10;;;15.00;99.90;;;;;;20813640;28;20579;-73
2021/12/28 06:06:46;;;;;;;0.20;0.07;;;14.90;99.90;;;;;;20828936;28;20284;-74
2021/12/28 06:16:50;;;;;;;0.20;0.10;;;14.80;99.90;;;;;;20828805;28;20662;-76
2021/12/28 06:26:55;;;;;;;0.20;0.10;;;14.60;99.90;;;;;;20828237;28;20687;-77
2021/12/28 06:36:59;;;;;;;0.20;0.00;;;14.70;99.90;;;;;;20827194;28;20337;-77
2021/12/28 06:47:04;;;;;;;0.20;0.10;;;14.90;99.90;;;;;;20827016;28;20208;-73
2021/12/28 06:57:14;;;;;;;0.20;0.07;;;14.90;99.90;;;;;;20825186;28;20614;-73
2021/12/28 07:07:19;;;;;;;0.20;0.10;;;14.80;99.90;;;;;;20825244;28;20221;-73
2021/12/28 07:17:26;;;;;;;0.20;0.10;;;14.50;99.90;;;;;;20838563;28;20222;-73
2021/12/28 07:27:31;;;;;;;0.20;0.10;;;14.60;99.90;;;;;;20839645;28;20282;-72
2021/12/28 07:37:35;;;;;;;0.20;0.00;;;14.70;99.90;;;;;;20838747;28;20678;-71
2021/12/28 07:47:41;;;;;;;0.20;0.00;;;14.50;99.90;;;;;;20839486;28;20194;-73
2021/12/28 07:57:45;;;;;;;0.20;0.10;;;14.40;99.90;;;;;;20840324;28;20272;-75
2021/12/28 08:07:50;;;;;;;0.20;0.10;;;14.50;99.90;;;;;;20783496;28;20234;-75
2021/12/28 08:17:54;;;;;;;0.20;0.10;;;14.60;99.90;;;;;;20787319;28;20234;-73
2021/12/28 08:28:02;;;;;;;0.20;0.10;;;15.00;99.90;;;;;;20773595;28;20559;-72
2021/12/28 08:38:06;;;;;;;0.20;0.10;;;15.30;99.90;;;;;;20825032;28;20236;-73
2021/12/28 08:48:12;;;;;;;0.20;0.10;;;15.50;99.90;;;;;;20832702;28;20244;-74
2021/12/28 08:58:16;;;;;;;0.20;0.10;;;15.70;99.90;;;;;;20804990;28;20289;-74
2021/12/28 09:08:22;;;;;;;0.20;0.10;;;15.80;99.90;;;;;;20793719;28;20307;-73
2021/12/28 09:18:26;;;;;;;0.20;0.10;;;16.00;99.90;;;;;;20790184;28;20568;-72
2021/12/28 09:28:32;;;;;;;0.20;0.00;;;16.10;99.90;;;;;;20770737;28;20195;-71
2021/12/28 09:38:36;;;;;;;0.20;0.10;;;16.30;99.90;;;;;;20762584;28;20231;-72
2021/12/28 09:48:41;;;;;;;0.20;0.00;;;16.50;99.90;;;;;;20802476;28;20293;-74
2021/12/28 09:58:45;;;;;;;0.20;0.00;;;16.70;99.90;;;;;;20798722;28;20265;-75
2021/12/28 10:09:08;;;;;;;0.20;0.10;;;17.10;99.90;;;;;;20758384;28;20238;-77
2021/12/28 10:19:34;;;;;;;0.20;0.10;;;17.60;99.90;;;;;;20822565;28;20229;-73
2021/12/28 10:29:40;;;;;;;0.20;0.00;;;18.00;99.90;;;;;;20782219;28;20202;-73
2021/12/28 10:39:45;;;;;;;0.20;0.10;;;18.00;99.90;;;;;;20771024;28;20246;-72
2021/12/28 10:49:52;;;;;;;0.70;0.30;;;18.10;99.90;;;;;;20805828;28;20294;-74
2021/12/28 11:00:25;;;;;;;0.20;0.10;;;18.30;99.90;;;;;;20763252;28;20245;-74
2021/12/28 11:10:30;;;;;;;0.20;0.10;;;18.80;99.90;;;;;;20757210;28;20206;-74
2021/12/28 11:20:34;;;;;;;0.97;0.73;;;19.50;99.90;;;;;;20825110;28;20310;-74
2021/12/28 11:30:40;;;;;;;0.20;0.10;;;19.80;99.90;;;;;;20824123;28;20300;-72
2021/12/28 11:40:44;;;;;;;0.20;0.10;;;19.90;99.90;;;;;;20823721;28;20217;-74
2021/12/28 11:50:50;;;;;;;0.20;0.00;;;20.50;99.90;;;;;;20821395;28;20201;-72
2021/12/28 12:00:54;;;;;;;0.20;0.00;;;20.00;99.90;;;;;;20828535;28;20273;-72
2021/12/28 12:11:06;;;;;;;1.07;0.90;;;21.30;99.90;;;;;;20819891;28;20221;-72
2021/12/28 12:21:17;;;;;;;0.20;0.10;;;21.20;99.90;;;;;;20836325;28;20251;-73
2021/12/28 12:31:36;;;;;;;0.20;0.00;;;21.60;99.90;;;;;;20836564;28;20241;-73
2021/12/28 12:41:44;;;;;;;0.20;0.10;;;21.30;99.90;;;;;;20834068;28;20190;-74
2021/12/28 12:52:01;;;;;;;0.20;0.00;;;21.70;99.90;;;;;;20833869;28;20316;-73
2021/12/28 13:02:07;;;;;;;0.20;0.00;;;21.30;99.90;;;;;;20832577;28;20226;-72
2021/12/28 13:12:14;;;;;;;0.20;0.00;;;21.50;99.90;;;;;;20832287;28;20343;-72
2021/12/28 13:22:17;;;;;;;0.20;0.00;;;22.40;99.90;;;;;;20832568;28;20293;-76
2021/12/28 13:32:24;;;;;;;0.20;0.10;;;21.90;99.90;;;;;;20830577;28;20248;-74
2021/12/28 13:42:28;;;;;;;0.73;0.73;;;22.20;99.90;;;;;;20831705;28;20194;-75
2021/12/28 13:52:43;;;;;;;0.20;0.00;;;22.50;99.90;;;;;;20832258;28;20245;-76
2021/12/28 14:02:56;;;;;;;0.22;0.20;;;21.90;99.90;;;;;;20833637;28;20321;-77
2021/12/28 14:13:08;;;;;;;0.20;0.00;;;22.80;99.90;;;;;;20829722;28;20225;-78
2021/12/28 14:23:12;;;;;;;0.20;0.00;;;22.10;99.90;;;;;;20810676;28;20267;-75
2021/12/28 14:33:17;;;;;;;0.20;0.10;;;22.80;99.90;;;;;;20827147;28;20228;-75
2021/12/28 14:43:21;;;;;;;0.20;0.00;;;23.90;99.90;;;;;;20827302;28;20202;-78
2021/12/28 14:53:26;;;;;;;0.20;0.00;;;21.60;99.90;;;;;;20822946;28;20229;-75
2021/12/28 15:03:34;;;;;;;0.20;0.10;;;20.70;99.90;;;;;;20803598;28;20230;-74
2021/12/28 15:13:43;;;;;;;0.20;0.00;;;20.50;99.90;;;;;;20820837;28;20214;-78
2021/12/28 15:23:47;;;;;;;0.20;0.10;;;20.90;99.90;;;;;;20819749;28;20730;-75
2021/12/28 15:33:52;;;;;;;0.20;0.10;;;20.60;99.90;;;;;;20807474;28;20551;-75
2021/12/28 15:43:56;;;;;;;0.20;0.00;;;19.60;99.90;;;;;;20836416;28;20281;-75
2021/12/28 15:54:02;;;;;;;0.20;0.10;;;20.90;99.90;;;;;;20835978;28;20284;-75
2021/12/28 16:04:07;;;;;;;0.20;0.10;;;20.10;99.90;;;;;;20834337;28;20254;-75
2021/12/28 16:14:13;;;;;;;0.20;0.10;;;19.20;99.90;;;;;;20832594;28;20276;-75
2021/12/28 16:24:17;;;;;;;0.20;0.10;;;18.90;99.90;;;;;;20832452;28;20205;-74
2021/12/28 16:34:24;;;;;;;0.20;0.10;;;18.50;99.90;;;;;;20833471;28;20568;-75
2021/12/28 16:44:30;;;;;;;0.20;0.10;;;17.60;99.90;;;;;;20831773;28;20248;-74
2021/12/28 16:54:36;;;;;;;0.20;0.10;;;17.40;99.90;;;;;;20830806;28;20272;-74
2021/12/28 17:04:39;;;;;;;0.20;0.10;;;17.10;99.90;;;;;;20830211;28;20232;-75
2021/12/28 17:14:45;;;;;;;0.20;0.10;;;16.80;99.90;;;;;;20811474;28;20272;-75
2021/12/28 17:24:48;;;;;;;0.20;0.10;;;16.60;99.90;;;;;;20828722;28;20285;-74
2021/12/28 17:34:58;;;;;;;0.20;0.10;;;16.10;99.90;;;;;;20827437;28;20229;-74
2021/12/28 17:45:05;;;;;;;0.20;0.00;;;16.40;99.90;;;;;;20827810;28;20202;-76
2021/12/28 17:55:12;;;;;;;0.20;0.10;;;16.60;99.90;;;;;;20825996;28;20213;-75
2021/12/28 18:05:17;;;;;;;0.20;0.10;;;16.50;99.90;;;;;;20823443;28;20760;-75
2021/12/28 18:15:23;;;;;;;0.20;0.00;;;16.10;99.90;;;;;;20821738;28;20218;-75
2021/12/28 18:25:27;;;;;;;0.20;0.20;;;15.80;99.90;;;;;;20810376;28;20197;-75
2021/12/28 18:35:35;;;;;;;0.67;0.67;;;15.40;99.90;;;;;;20826405;28;20692;-75
2021/12/28 18:45:39;;;;;;;0.20;0.10;;;15.30;99.90;;;;;;20826097;28;20583;-77
2021/12/28 18:55:47;;;;;;;0.20;0.10;;;15.50;99.90;;;;;;20827670;28;20221;-75
2021/12/28 19:05:52;;;;;;;0.20;0.00;;;15.40;99.90;;;;;;20822984;28;20236;-77
2021/12/28 19:15:57;;;;;;;0.20;0.10;;;14.90;99.90;;;;;;20822633;28;20224;-77
2021/12/28 19:26:01;;;;;;;0.20;0.10;;;15.00;99.90;;;;;;20823300;28;20652;-75
2021/12/28 19:36:08;;;;;;;0.20;0.10;;;14.70;99.90;;;;;;20782305;28;20669;-73
2021/12/28 19:46:12;;;;;;;0.20;0.10;;;14.80;99.90;;;;;;20772558;28;20194;-77
2021/12/28 19:56:17;;;;;;;0.20;0.10;;;14.80;99.90;;;;;;20778944;28;20218;-75
2021/12/28 20:06:22;;;;;;;0.20;0.10;;;14.60;99.90;;;;;;20797901;28;20806;-75
2021/12/28 20:16:27;;;;;;;0.20;0.10;;;14.70;99.90;;;;;;20804484;28;20233;-75
2021/12/28 20:26:31;;;;;;;0.20;0.10;;;14.70;99.90;;;;;;20832863;28;20226;-74
2021/12/28 20:36:37;;;;;;;0.20;0.10;;;14.40;99.90;;;;;;20807596;28;20674;-72
2021/12/28 20:46:41;;;;;;;0.20;0.00;;;14.00;99.90;;;;;;20801718;28;20234;-73
2021/12/28 20:56:48;;;;;;;0.20;0.10;;;14.00;99.90;;;;;;20749756;28;20229;-73
2021/12/28 21:06:51;;;;;;;0.20;0.07;;;14.30;99.90;;;;;;20823285;28;20253;-73
2021/12/28 21:16:58;;;;;;;0.20;0.10;;;13.90;99.90;;;;;;20829794;28;20264;-74
2021/12/28 21:27:02;;;;;;;0.20;0.10;;;14.30;99.90;;;;;;20825164;28;20294;-73
2021/12/28 21:37:07;;;;;;;0.20;0.10;;;14.00;99.90;;;;;;20816933;28;20230;-72
2021/12/28 21:47:13;;;;;;;0.20;0.10;;;13.80;99.90;;;;;;20816564;28;20552;-73
2021/12/28 21:57:18;;;;;;;0.20;0.10;;;13.40;99.90;;;;;;20819302;28;20264;-72
2021/12/28 22:07:21;;;;;;;0.20;0.10;;;13.70;99.90;;;;;;20743948;28;20240;-72
2021/12/28 22:17:26;;;;;;;0.20;0.10;;;13.70;99.90;;;;;;20796795;28;20615;-72
2021/12/28 22:27:30;;;;;;;0.20;0.00;;;13.80;99.90;;;;;;20824353;28;20225;-73
2021/12/28 22:37:35;;;;;;;0.20;0.10;;;13.80;99.90;;;;;;20821874;28;20208;-73
2021/12/28 22:47:40;;;;;;;0.20;0.00;;;13.00;99.90;;;;;;20823002;28;20225;-72
2021/12/28 22:57:48;;;;;;;0.20;0.10;;;13.90;99.90;;;;;;20802137;28;20198;-72
2021/12/28 23:07:52;;;;;;;0.20;0.10;;;14.50;99.90;;;;;;20821413;28;20238;-72
2021/12/28 23:17:57;;;;;;;0.20;0.10;;;14.50;99.90;;;;;;20803776;28;20206;-73
2021/12/28 23:28:00;;;;;;;0.20;0.10;;;14.10;99.90;;;;;;20820524;28;20313;-73
2021/12/28 23:38:07;;;;;;;0.20;0.07;;;14.10;99.90;;;;;;20784531;28;20201;-73
2021/12/28 23:48:11;;;;;;;0.20;0.10;;;14.80;99.90;;;;;;20804582;28;20222;-73
2021/12/28 23:58:16;;;;;;;0.20;0.07;;;14.80;99.90;;;;;;20804185;28;20209;-74
